Ashland, New York
Current Conditions -  °F | °C
As of 2:51 PM on Monday 26 Jan 2015 (Local Time) from KALB Reporting Station
Light Snow Light Snow  
Wind Chill: -14°   Ceiling: 4800
Heat Index: -8°   Visibility: 10mi
Dew Point: -18°   Wind: 7mph
Humidity: 45%   Direction: 360°N
Pressure: 30.04"   Gusts: NA
Location:  42.3°N, 74.33°W
Report Text: KALB 261951Z 36006KT 10SM -SN OVC048 M08/M18 A3004 RMK AO2 SNB41 SLP177 PCPN VRY LGT P0000 T10831183
Loading
Personal Weather Stations






























Interactive Weather Map New forecast layout! Learn more

10-Day Weather Forecast

Advertisements
Track Severe Weather on mobile